Погода Гоготовона 2 недели

Тверская область, Россия

24 мая-06 июня
  • 24мая
    Сегодня
    +8°
    +24°
    Ясно и безоблачно
    ВремяПогодаТемператураВлажностьДавлениеВетер, м/сВероятность осадков
    00:00Ясно и безоблачно+6°C70 %758 мм2.1 м/с2 %
    03:00Ясно и безоблачно+6°C66 %758 мм2.6 м/с2 %
    06:00Ясно и безоблачно+10°C65 %759 мм3.2 м/с2 %
    09:00Практически безоблачно+18°C49 %759 мм2.7 м/с2 %
    12:00Облачно с прояснениями+22°C35 %759 мм2.2 м/с2 %
    15:00Ясно и безоблачно+23°C33 %758 мм1.9 м/с2 %
    18:00Ясно и безоблачно+23°C34 %757 мм2.0 м/с2 %
    21:00Ясно и безоблачно+16°C50 %757 мм2.6 м/с2 %
  • 25мая
    Суббота
    +11°
    +23°
    Ясно и безоблачно
    ВремяПогодаТемператураВлажностьДавлениеВетер, м/сВероятность осадков
    00:00Ясно и безоблачно+11°C54 %757 мм3.1 м/с2 %
    03:00Ясно и безоблачно+8°C60 %757 мм3.4 м/с2 %
    06:00Ясно и безоблачно+11°C61 %757 мм3.5 м/с2 %
    09:00Практически безоблачно+19°C46 %757 мм3.8 м/с2 %
    12:00Практически безоблачно+21°C30 %756 мм5.1 м/с2 %
    15:00Ясно и безоблачно+22°C28 %754 мм4.9 м/с2 %
    18:00Ясно и безоблачно+23°C32 %753 мм4.5 м/с2 %
    21:00Ясно и безоблачно+16°C49 %752 мм2.8 м/с2 %
  • 26мая
    Воскресенье
    +4°
    +20°
    Практически безоблачно
    ВремяПогодаТемператураВлажностьДавлениеВетер, м/сВероятность осадков
    00:00Практически безоблачно+13°C55 %752 мм3.6 м/с2 %
    03:00Практически безоблачно+11°C66 %752 мм2.6 м/с5 %
    06:00Облачно с прояснениями+13°C75 %753 мм2.9 м/с23 %
    09:00Пасмурно, небольшой дождь+17°C75 %754 мм4.7 м/с42 %
    12:00Небольшая облачность+19°C56 %754 мм4.4 м/с43 %
    15:00Практически безоблачно+20°C43 %755 мм4.4 м/с20 %
    18:00Практически безоблачно+18°C43 %755 мм4.6 м/с2 %
    21:00Ясно и безоблачно+13°C48 %756 мм3.3 м/с2 %
  • 27мая
    Понедельник
    +5°
    +20°
    Небольшая облачность
    ВремяПогодаТемператураВлажностьДавлениеВетер, м/сВероятность осадков
    00:00Ясно и безоблачно+8°C55 %757 мм3.3 м/с2 %
    03:00Ясно и безоблачно+5°C62 %758 мм2.3 м/с2 %
    06:00Ясно и безоблачно+8°C65 %759 мм2.5 м/с2 %
    09:00Практически безоблачно+16°C40 %759 мм3.0 м/с2 %
    12:00Ясно и безоблачно+18°C35 %759 мм2.7 м/с2 %
    15:00Небольшая облачность+20°C35 %758 мм2.0 м/с2 %
    18:00Ясно и безоблачно+20°C35 %757 мм1.8 м/с2 %
    21:00Ясно и безоблачно+14°C56 %757 мм2.1 м/с2 %
  • 28мая
    Вторник
    +10°
    +24°
    Ясно и безоблачно
    ВремяПогодаТемператураВлажностьДавлениеВетер, м/сВероятность осадков
    00:00Ясно и безоблачно+8°C63 %756 мм2.3 м/с2 %
    03:00Ясно и безоблачно+7°C70 %756 мм2.5 м/с2 %
    06:00Ясно и безоблачно+10°C66 %757 мм2.7 м/с2 %
    09:00Ясно и безоблачно+19°C48 %756 мм2.1 м/с2 %
    12:00Ясно и безоблачно+23°C37 %756 мм2.1 м/с2 %
    15:00Ясно и безоблачно+24°C36 %755 мм2.2 м/с2 %
    18:00Ясно и безоблачно+24°C37 %754 мм2.3 м/с2 %
    21:00Ясно и безоблачно+18°C52 %753 мм2.9 м/с2 %
Мы используем cookies
Соглашаюсь